Sturgeon Bay, WI

12:57 PM CDT on July 06, 2015 (GMT -0500)
APRSWXNET | | Change Station
CLOSE
Current Station
Personal Weather Station
Location: Sturgeon Bay, WI
Elevation: 597 ft
Nearby Weather Stations
Active Advisory: Beach Hazard Statement

Elev 597 ft 44.83 °N, 87.36 °W | Updated 25 minutes ago

Overcast
Overcast
72 °F
Feels Like 73 °F
N
2
Wind Variable Wind from SSE
Gusts 8.0 mph

Today
High -- | Low -- °F
--% Chance of Precip.
Yesterday
High -- | Low -- °F
Precip. -- in
5:10 AM 8:37 PM
Waning Gibbous, 73% visible
Pressure 29.88 in
Visibility 5.0 miles
Clouds Mostly Cloudy 2800 ft
Overcast 3700 ft
Heat Index 73 °F
Dew Point 64 °F
Humidity 77%
Rainfall in
Snow Depth Not available.
UV 3 out of 12
Pollen 3.50 out of 12
Air Quality Not available.
Flu Activity Not available.
METAR KSUE 061755Z AUTO 15007KT 5SM BKN028 OVC037 22/18 A2988 RMK AO1 10230 20180 57010

More Conditions Fewer Conditions

Pressure 29.88 in
Visibility 5.0 miles
Clouds Mostly Cloudy 2800 ft
Overcast 3700 ft
Heat Index 73 °F
Dew Point 64 °F
Humidity 77%
Rainfall in
Snow Depth Not available.
UV 3 out of 12
Pollen 3.50 out of 12
Air Quality Not available.
Flu Activity Not available.
METAR KSUE 061755Z AUTO 15007KT 5SM BKN028 OVC037 22/18 A2988 RMK AO1 10230 20180 57010

More Conditions Fewer Conditions

10-Day Weather Forecast

×

Almanac

Astronomy

Jul. 06, 2015 Rise Set
Actual Time
Civil Twilight
Nautical Twilight
Astronomical Twilight
Moon
Length of Visible Light
Length of Day
Tomorrow will be .
, % of the Moon is Illuminated

Today's Extremes

State Highs State Lows

Community

WunderPhotos

Upload Photos

1,835,607 photos uploaded!

WunderBlogs® & News

Nearby

Air Quality

  Air Quality AQ Index Pollutant
Not available.

Snow Depth

Station Depth Elevation

Earthquake Activity

City Distance Mag. Time & Date
Minimum magnitude displayed is 2.5.

Coastal Water Temperatures

Place Temperature

Stations

Nearby Weather Stations

Station Location Temp. Windchill Dew Point Humidity Wind Precip. Elev Updated Type
                   
Beach Hazard Statement
Statement as of 11:17 AM CDT on July 06, 2015

... Beach hazards statement remains in effect until 10 PM CDT this
evening...

* high wave action... strong currents and dangerous swimming
conditions expected.

* Location...

beaches of Door County including Rock Island state beach...
Baileys Harbor beaches... and Whitefish Dunes Beach.

Beaches of Kewaunee County including Cresent Beach and city
of Kewaunee beach.

Beaches of Manitowoc County including Point Beach... neshotah
beach... and red arrow beach.

* Strong southerly winds will bring waves of 3 to 5 feet to the
Lake Michigan shore of northeast Wisconsin through late Monday
evening... resulting in dangerous swimming conditions.

Precautionary/preparedness actions...

High wave action makes swimming difficult as waves on the Great
Lakes occur in rapid succession. High wave action also leads to
strong currents.



AK